createdAt,value
2022-11-17T00:00:45.046Z,97327.63
2022-11-17T00:03:15.686Z,97325.00
2022-11-17T00:05:43.309Z,97316.28
2022-11-17T00:08:09.867Z,97311.00
2022-11-17T00:10:36.428Z,97324.13
2022-11-17T00:13:21.259Z,97317.09
2022-11-17T00:15:47.817Z,97304.88
2022-11-17T00:18:36.424Z,97305.75
2022-11-17T00:21:21.582Z,97304.03
2022-11-17T00:23:48.554Z,97302.25
2022-11-17T00:26:29.463Z,97301.41
2022-11-17T00:28:58.930Z,97304.00
2022-11-17T00:31:46.158Z,97297.88
2022-11-17T00:34:18.855Z,97293.53
2022-11-17T00:36:47.903Z,97284.78
2022-11-17T00:39:20.108Z,97281.28
2022-11-17T00:41:46.908Z,97277.81
2022-11-17T00:44:14.386Z,97264.72
2022-11-17T00:46:43.769Z,97262.88
2022-11-17T00:49:11.487Z,97264.66
2022-11-17T00:51:41.612Z,97266.47
2022-11-17T00:54:11.188Z,97259.47
2022-11-17T00:56:37.755Z,97250.69
2022-11-17T00:59:04.413Z,97258.56
2022-11-17T01:01:31.235Z,97255.97
2022-11-17T01:04:04.788Z,97259.44
2022-11-17T01:06:35.904Z,97259.47
2022-11-17T01:09:05.526Z,97262.97
2022-11-17T01:11:32.423Z,97253.38
2022-11-17T01:14:00.489Z,97255.13
2022-11-17T01:16:28.372Z,97248.97
2022-11-17T01:18:54.995Z,97239.38
2022-11-17T01:21:26.680Z,97232.47
2022-11-17T01:23:57.556Z,97234.16
2022-11-17T01:26:27.781Z,97236.84
2022-11-17T01:28:54.751Z,97239.47
2022-11-17T01:31:24.542Z,97231.63
2022-11-17T01:33:51.646Z,97226.34
2022-11-17T01:36:24.402Z,97217.66
2022-11-17T01:38:50.987Z,97218.50
2022-11-17T01:41:22.654Z,97210.69
2022-11-17T01:43:57.853Z,97198.41
2022-11-17T01:46:41.220Z,97179.19
2022-11-17T01:49:24.598Z,97182.75
2022-11-17T01:51:57.602Z,97178.41
2022-11-17T01:54:27.273Z,97186.22
2022-11-17T01:56:59.609Z,97193.22
2022-11-17T01:59:33.780Z,97183.66
2022-11-17T02:02:00.493Z,97179.34
2022-11-17T02:04:33.085Z,97172.34
2022-11-17T02:07:15.595Z,97169.75
2022-11-17T02:09:49.225Z,97174.06
2022-11-17T02:12:21.095Z,97174.06
2022-11-17T02:14:52.260Z,97164.47
2022-11-17T02:17:21.528Z,97177.59
2022-11-17T02:20:01.503Z,97160.19
2022-11-17T02:22:49.473Z,97156.72
2022-11-17T02:25:27.909Z,97161.13
2022-11-17T02:27:54.319Z,97165.47
2022-11-17T02:30:23.119Z,97161.06
2022-11-17T02:33:11.344Z,97165.41
2022-11-17T02:35:47.635Z,97161.97
2022-11-17T02:38:41.510Z,97153.25
2022-11-17T02:41:23.015Z,97151.53
2022-11-17T02:44:23.898Z,97148.03
2022-11-17T02:47:08.244Z,97152.41
2022-11-17T02:49:38.983Z,97141.09
2022-11-17T02:52:06.542Z,97139.34
2022-11-17T02:54:33.713Z,97134.97
2022-11-17T02:57:00.601Z,97134.13
2022-11-17T02:59:33.991Z,97128.00
2022-11-17T03:02:03.627Z,97128.94
2022-11-17T03:04:52.806Z,97118.47
2022-11-17T03:07:43.929Z,97113.22
2022-11-17T03:10:29.006Z,97110.59
2022-11-17T03:13:05.835Z,97102.69
2022-11-17T03:15:50.759Z,97096.56
2022-11-17T03:18:30.377Z,97099.19
2022-11-17T03:21:05.849Z,97097.44
2022-11-17T03:23:43.483Z,97093.97
2022-11-17T03:26:13.544Z,97091.31
2022-11-17T03:28:42.752Z,97080.81
2022-11-17T03:31:16.004Z,97078.25
2022-11-17T03:33:47.738Z,97066.03
2022-11-17T03:36:18.708Z,97076.53
2022-11-17T03:38:58.169Z,97076.50
2022-11-17T03:41:28.696Z,97079.97
2022-11-17T03:43:58.292Z,97072.97
2022-11-17T03:46:28.659Z,97075.63
2022-11-17T03:49:02.854Z,97069.50
2022-11-17T03:51:33.238Z,97064.28
2022-11-17T03:54:00.888Z,97066.88
2022-11-17T03:56:46.031Z,97062.56
2022-11-17T03:59:22.254Z,97059.06
2022-11-17T04:01:48.790Z,97052.94
2022-11-17T04:04:16.683Z,97051.16
2022-11-17T04:06:43.300Z,97053.78
2022-11-17T04:09:09.977Z,97054.63
2022-11-17T04:11:55.111Z,97059.91
2022-11-17T04:14:39.742Z,97053.78
2022-11-17T04:17:06.313Z,97053.75
2022-11-17T04:19:32.789Z,97053.72
2022-11-17T04:21:59.340Z,97054.59
2022-11-17T04:24:25.806Z,97049.38
2022-11-17T04:27:10.452Z,97058.06
2022-11-17T04:29:36.969Z,97054.56
2022-11-17T04:32:03.545Z,97045.81
2022-11-17T04:34:30.036Z,97052.81
2022-11-17T04:37:01.642Z,97054.56
2022-11-17T04:39:30.541Z,97045.81
2022-11-17T04:42:01.880Z,97044.16
2022-11-17T04:44:32.457Z,97032.81
2022-11-17T04:46:59.450Z,97031.94
2022-11-17T04:49:26.149Z,97032.81
2022-11-17T04:51:53.750Z,97030.19
2022-11-17T04:54:24.534Z,97029.38
2022-11-17T04:56:55.098Z,97032.91
2022-11-17T04:59:24.649Z,97020.69
2022-11-17T05:01:51.525Z,97018.94
2022-11-17T05:04:40.327Z,97005.84
2022-11-17T05:07:08.357Z,97007.56
2022-11-17T05:09:34.912Z,96999.72
2022-11-17T05:12:20.057Z,96992.72
2022-11-17T05:14:49.138Z,96995.38
2022-11-17T05:17:16.151Z,96998.84
2022-11-17T05:19:45.310Z,96979.63
2022-11-17T05:22:32.833Z,96975.25
2022-11-17T05:24:59.588Z,96969.97
2022-11-17T05:27:26.796Z,96966.53
2022-11-17T05:29:53.789Z,96971.75
2022-11-17T05:32:21.475Z,96974.41
2022-11-17T05:34:48.070Z,96968.28
2022-11-17T05:37:18.286Z,96968.31
2022-11-17T05:39:44.738Z,96963.06
2022-11-17T05:42:11.388Z,96970.03
2022-11-17T05:44:37.884Z,96969.16
2022-11-17T05:47:04.421Z,96960.50
2022-11-17T05:49:30.891Z,96961.41
2022-11-17T05:51:57.374Z,96967.50
2022-11-17T05:54:23.821Z,96971.88
2022-11-17T05:57:04.516Z,96970.13
2022-11-17T05:59:49.627Z,96979.72
2022-11-17T06:02:23.983Z,96959.66
2022-11-17T06:04:51.756Z,96966.63
2022-11-17T06:07:19.497Z,96963.09
2022-11-17T06:09:46.593Z,96975.25
2022-11-17T06:12:15.146Z,96966.53
2022-11-17T06:14:41.713Z,96965.66
2022-11-17T06:17:21.919Z,96968.28
2022-11-17T06:19:55.655Z,96952.56
2022-11-17T06:22:22.688Z,96960.44
2022-11-17T06:24:49.204Z,96963.06
2022-11-17T06:27:17.192Z,96963.06
2022-11-17T06:29:45.250Z,96954.41
2022-11-17T06:32:17.070Z,96944.84
2022-11-17T06:34:49.062Z,96950.94
2022-11-17T06:37:17.264Z,96948.38
2022-11-17T06:39:43.725Z,96944.03
2022-11-17T06:42:10.195Z,96941.44
2022-11-17T06:44:36.831Z,96954.59
2022-11-17T06:47:03.517Z,96944.97
2022-11-17T06:49:30.034Z,96942.38
2022-11-17T06:51:56.519Z,96949.38
2022-11-17T06:54:25.960Z,96964.19
2022-11-17T06:56:55.993Z,96976.38
2022-11-17T06:59:22.555Z,96964.19
2022-11-17T07:01:49.034Z,96966.75
2022-11-17T07:04:19.106Z,96965.00
2022-11-17T07:06:45.604Z,96957.19
2022-11-17T07:09:12.071Z,96947.63
2022-11-17T07:11:38.536Z,96948.50
2022-11-17T07:14:05.028Z,96945.03
2022-11-17T07:16:32.490Z,96949.38
2022-11-17T07:18:59.518Z,96954.66
2022-11-17T07:21:26.201Z,96943.28
2022-11-17T07:23:52.762Z,96944.22
2022-11-17T07:26:19.571Z,96948.53
2022-11-17T07:28:46.058Z,96949.41
2022-11-17T07:31:12.563Z,96949.41
2022-11-17T07:33:39.056Z,96952.09
2022-11-17T07:36:11.632Z,96948.53
2022-11-17T07:38:39.847Z,96944.19
2022-11-17T07:41:07.979Z,96938.97
2022-11-17T07:43:35.028Z,96938.13
2022-11-17T07:46:10.739Z,96945.13
2022-11-17T07:48:37.602Z,96948.59
2022-11-17T07:51:05.419Z,96942.53
2022-11-17T07:53:34.475Z,96939.84
2022-11-17T07:56:09.724Z,96938.16
2022-11-17T07:58:37.837Z,96937.28
2022-11-17T08:01:06.091Z,96932.97
2022-11-17T08:03:32.794Z,96926.88
2022-11-17T08:06:06.993Z,96925.13
2022-11-17T08:08:34.505Z,96916.41
2022-11-17T08:11:09.983Z,96909.41
2022-11-17T08:13:37.985Z,96911.19
2022-11-17T08:16:04.799Z,96906.78
2022-11-17T08:18:31.465Z,96899.84
2022-11-17T08:21:05.438Z,96897.25
2022-11-17T08:23:32.756Z,96888.47
2022-11-17T08:25:59.890Z,96893.72
2022-11-17T08:28:27.616Z,96885.00
2022-11-17T08:30:54.311Z,96893.72
2022-11-17T08:33:20.779Z,96882.38
2022-11-17T08:35:47.368Z,96876.22
2022-11-17T08:38:15.459Z,96879.66
2022-11-17T08:40:42.608Z,96877.97
2022-11-17T08:43:09.111Z,96870.94
2022-11-17T08:45:35.615Z,96881.38
2022-11-17T08:48:02.070Z,96881.34
2022-11-17T08:50:28.588Z,96881.38
2022-11-17T08:52:55.137Z,96892.75
2022-11-17T08:55:21.688Z,96891.81
2022-11-17T08:57:48.298Z,96882.28
2022-11-17T09:00:16.341Z,96891.88
2022-11-17T09:02:42.835Z,96884.00
2022-11-17T09:05:09.514Z,96863.06
2022-11-17T09:07:36.099Z,96870.94
2022-11-17T09:10:05.366Z,96877.91
2022-11-17T09:12:32.421Z,96870.91
2022-11-17T09:14:58.957Z,96860.38
2022-11-17T09:17:25.458Z,96867.38
2022-11-17T09:19:51.972Z,96859.53
2022-11-17T09:22:19.823Z,96870.94
2022-11-17T09:24:46.281Z,96866.56
2022-11-17T09:27:13.432Z,96861.31
2022-11-17T09:29:43.187Z,96856.91
2022-11-17T09:32:09.724Z,96847.28
2022-11-17T09:34:36.311Z,96853.38
2022-11-17T09:37:02.862Z,96863.03
2022-11-17T09:39:32.801Z,96856.00
2022-11-17T09:41:59.354Z,96854.25
2022-11-17T09:44:51.418Z,96857.72
2022-11-17T09:47:38.508Z,96845.47
2022-11-17T09:50:20.118Z,96845.53
2022-11-17T09:53:20.477Z,96845.53
2022-11-17T09:55:51.171Z,96837.59
2022-11-17T09:58:55.259Z,96842.78
2022-11-17T10:01:22.499Z,96844.47
2022-11-17T10:03:53.572Z,96839.22
2022-11-17T10:06:22.617Z,96838.34
2022-11-17T10:09:03.392Z,96834.81
2022-11-17T10:11:33.251Z,96830.41
2022-11-17T10:14:08.304Z,96833.81
2022-11-17T10:16:36.229Z,96832.00
2022-11-17T10:19:17.880Z,96827.59
2022-11-17T10:21:51.772Z,96829.34
2022-11-17T10:24:43.702Z,96824.09
2022-11-17T10:27:32.308Z,96820.59
2022-11-17T10:30:04.581Z,96817.91
2022-11-17T10:32:35.046Z,96815.25
2022-11-17T10:35:14.987Z,96831.91
2022-11-17T10:37:51.329Z,96832.78
2022-11-17T10:40:25.991Z,96829.34
2022-11-17T10:43:00.525Z,96821.47
2022-11-17T10:45:27.992Z,96824.13
2022-11-17T10:48:09.542Z,96819.78
2022-11-17T10:50:36.396Z,96826.78
2022-11-17T10:53:46.313Z,96809.34
2022-11-17T10:56:17.731Z,96809.34
2022-11-17T10:58:57.001Z,96808.44
2022-11-17T11:01:39.051Z,96804.94
2022-11-17T11:04:07.203Z,96808.34
2022-11-17T11:06:35.398Z,96803.91
2022-11-17T11:09:32.336Z,96798.69
2022-11-17T11:12:02.086Z,96806.56
2022-11-17T11:14:39.087Z,96802.22
2022-11-17T11:17:13.606Z,96791.75
2022-11-17T11:19:42.079Z,96794.31
2022-11-17T11:22:30.406Z,96790.78
2022-11-17T11:25:02.936Z,96785.63
2022-11-17T11:27:35.694Z,96792.53
2022-11-17T11:30:02.097Z,96785.53
2022-11-17T11:32:50.046Z,96800.34
2022-11-17T11:35:38.033Z,96801.22
2022-11-17T11:38:41.279Z,96799.59
2022-11-17T11:41:32.221Z,96786.38
2022-11-17T11:44:20.869Z,96786.34
2022-11-17T11:47:08.942Z,96781.06
2022-11-17T11:49:49.451Z,96784.56
2022-11-17T11:52:21.917Z,96780.19
2022-11-17T11:55:07.263Z,96790.69
2022-11-17T11:57:39.231Z,96789.00
2022-11-17T12:00:07.006Z,96784.63
2022-11-17T12:02:51.310Z,96800.31
2022-11-17T12:05:24.109Z,96795.91
2022-11-17T12:08:13.288Z,96797.63
2022-11-17T12:10:50.782Z,96797.56
2022-11-17T12:13:20.944Z,96799.31
2022-11-17T12:15:47.995Z,96790.53
2022-11-17T12:18:17.580Z,96790.50
2022-11-17T12:21:01.138Z,96785.19
2022-11-17T12:23:38.032Z,96781.75
2022-11-17T12:26:05.271Z,96786.16
2022-11-17T12:28:40.554Z,96783.41
2022-11-17T12:31:11.283Z,96784.34
2022-11-17T12:33:52.845Z,96786.09
2022-11-17T12:36:30.633Z,96786.03
2022-11-17T12:39:03.589Z,96785.97
2022-11-17T12:41:54.792Z,96789.50
2022-11-17T12:44:48.501Z,96786.81
2022-11-17T12:47:27.125Z,96784.19
2022-11-17T12:50:02.868Z,96793.84
2022-11-17T12:52:50.317Z,96791.22
2022-11-17T12:55:24.632Z,96786.88
2022-11-17T12:58:11.451Z,96789.44
2022-11-17T13:00:52.896Z,96795.53
2022-11-17T13:03:28.247Z,96786.75
2022-11-17T13:06:34.540Z,96791.97
2022-11-17T13:09:01.649Z,96796.28
2022-11-17T13:11:29.353Z,96810.31
2022-11-17T13:14:17.103Z,96801.59
2022-11-17T13:16:50.299Z,96794.56
2022-11-17T13:19:36.705Z,96793.69
2022-11-17T13:22:13.859Z,96791.03
2022-11-17T13:24:50.454Z,96793.75
2022-11-17T13:27:22.306Z,96799.84
2022-11-17T13:29:49.560Z,96798.97
2022-11-17T13:32:22.067Z,96792.00
2022-11-17T13:34:54.160Z,96801.69
2022-11-17T13:37:26.656Z,96789.44
2022-11-17T13:39:55.170Z,96787.69
2022-11-17T13:42:25.175Z,96791.22
2022-11-17T13:44:55.175Z,96788.59
2022-11-17T13:47:28.383Z,96792.94
2022-11-17T13:49:54.903Z,96788.56
2022-11-17T13:52:51.651Z,96789.44
2022-11-17T13:55:20.561Z,96792.06
2022-11-17T13:58:25.892Z,96793.88
2022-11-17T14:00:56.515Z,96792.09
2022-11-17T14:03:38.112Z,96798.16
2022-11-17T14:06:10.561Z,96795.63
2022-11-17T14:08:39.372Z,96791.28
2022-11-17T14:11:05.898Z,96794.75
2022-11-17T14:13:53.896Z,96788.66
2022-11-17T14:16:37.449Z,96800.00
2022-11-17T14:19:16.474Z,96801.75
2022-11-17T14:22:29.233Z,96807.88
2022-11-17T14:24:57.728Z,96810.50
2022-11-17T14:27:27.058Z,96807.88
2022-11-17T14:29:53.559Z,96805.25
2022-11-17T14:32:19.996Z,96805.28
2022-11-17T14:34:46.512Z,96820.09
2022-11-17T14:37:13.065Z,96815.72
2022-11-17T14:39:39.589Z,96815.72
2022-11-17T14:42:06.091Z,96822.69
2022-11-17T14:44:32.570Z,96825.34
2022-11-17T14:46:59.046Z,96820.06
2022-11-17T14:49:25.538Z,96819.22
2022-11-17T14:51:53.153Z,96813.91
2022-11-17T14:54:19.610Z,96827.09
2022-11-17T14:56:46.160Z,96821.00
2022-11-17T14:59:13.467Z,96820.94
2022-11-17T15:01:41.084Z,96822.63
2022-11-17T15:04:27.630Z,96826.16
2022-11-17T15:06:54.179Z,96838.38
2022-11-17T15:09:21.124Z,96838.31
2022-11-17T15:11:48.231Z,96835.72
2022-11-17T15:14:15.041Z,96840.97
2022-11-17T15:16:41.787Z,96851.44
2022-11-17T15:19:08.242Z,96844.44
2022-11-17T15:21:34.964Z,96850.59
2022-11-17T15:24:03.999Z,96856.69
2022-11-17T15:26:32.339Z,96855.84
2022-11-17T15:28:59.103Z,96854.09
2022-11-17T15:31:25.674Z,96848.84
2022-11-17T15:33:52.200Z,96860.16
2022-11-17T15:36:21.623Z,96848.78
2022-11-17T15:38:48.400Z,96854.94
2022-11-17T15:41:16.020Z,96852.31
2022-11-17T15:43:44.527Z,96861.03
2022-11-17T15:46:15.836Z,96859.31
2022-11-17T15:48:43.859Z,96861.88
2022-11-17T15:51:18.006Z,96863.63
2022-11-17T15:53:48.832Z,96871.50
2022-11-17T15:56:20.619Z,96867.09
2022-11-17T15:58:48.586Z,96856.59
2022-11-17T16:01:24.731Z,96860.97
2022-11-17T16:03:52.779Z,96861.84
2022-11-17T16:06:19.286Z,96861.81
2022-11-17T16:08:45.739Z,96854.00
2022-11-17T16:11:12.284Z,96864.53
2022-11-17T16:13:38.903Z,96867.06
2022-11-17T16:16:06.299Z,96870.59
2022-11-17T16:18:40.419Z,96872.31
2022-11-17T16:21:10.468Z,96885.47
2022-11-17T16:23:41.620Z,96871.47
2022-11-17T16:26:10.525Z,96882.84
2022-11-17T16:28:37.677Z,96881.06
2022-11-17T16:31:19.404Z,96877.53
2022-11-17T16:33:51.132Z,96880.16
2022-11-17T16:36:18.594Z,96883.69
2022-11-17T16:38:59.964Z,96890.66
2022-11-17T16:41:32.451Z,96884.53
2022-11-17T16:43:59.541Z,96884.50
2022-11-17T16:46:31.505Z,96884.53
2022-11-17T16:49:02.180Z,96887.22
2022-11-17T16:51:29.149Z,96890.66
2022-11-17T16:54:00.631Z,96883.66
2022-11-17T16:56:27.927Z,96892.38
2022-11-17T16:58:54.879Z,96886.25
2022-11-17T17:01:26.917Z,96888.00
2022-11-17T17:04:00.457Z,96887.97
2022-11-17T17:06:27.423Z,96895.84
2022-11-17T17:08:59.445Z,96891.50
2022-11-17T17:11:27.194Z,96893.22
2022-11-17T17:13:53.925Z,96890.59
2022-11-17T17:16:20.819Z,96892.38
2022-11-17T17:18:48.152Z,96897.63
2022-11-17T17:21:18.125Z,96890.59
2022-11-17T17:23:45.675Z,96900.25
2022-11-17T17:26:16.618Z,96904.63
2022-11-17T17:28:44.891Z,96901.09
2022-11-17T17:31:20.768Z,96904.56
2022-11-17T17:33:48.423Z,96905.50
2022-11-17T17:36:17.633Z,96908.13
2022-11-17T17:38:46.813Z,96908.94
2022-11-17T17:41:20.079Z,96917.66
2022-11-17T17:43:47.586Z,96915.88
2022-11-17T17:46:16.717Z,96911.59
2022-11-17T17:48:44.979Z,96915.97
2022-11-17T17:51:17.119Z,96924.66
2022-11-17T17:53:43.916Z,96916.81
2022-11-17T17:56:12.959Z,96919.41
2022-11-17T17:58:40.624Z,96919.41
2022-11-17T18:01:12.488Z,96924.69
2022-11-17T18:03:40.010Z,96928.16
2022-11-17T18:06:06.964Z,96926.38
2022-11-17T18:08:35.575Z,96926.41
2022-11-17T18:11:06.030Z,96924.72
2022-11-17T18:13:34.079Z,96935.22
2022-11-17T18:16:11.345Z,96932.56
2022-11-17T18:18:38.704Z,96930.81
2022-11-17T18:21:10.085Z,96929.94
2022-11-17T18:23:38.130Z,96927.34
2022-11-17T18:26:12.253Z,96935.22
2022-11-17T18:28:39.495Z,96941.28
2022-11-17T18:31:10.319Z,96937.81
2022-11-17T18:33:37.274Z,96935.19
2022-11-17T18:36:06.084Z,96942.19
2022-11-17T18:38:34.351Z,96940.38
2022-11-17T18:41:09.306Z,96946.56
2022-11-17T18:43:36.118Z,96948.34
2022-11-17T18:46:08.312Z,96954.50
2022-11-17T18:48:36.729Z,96947.50
2022-11-17T18:51:20.681Z,96948.41
2022-11-17T18:53:48.840Z,96944.84
2022-11-17T18:56:17.727Z,96961.47
2022-11-17T18:58:44.621Z,96952.81
2022-11-17T19:01:14.019Z,96950.19
2022-11-17T19:03:42.357Z,96953.66
2022-11-17T19:06:10.417Z,96961.53
2022-11-17T19:08:37.458Z,96958.97
2022-11-17T19:11:06.581Z,96957.16
2022-11-17T19:13:37.257Z,96949.31
2022-11-17T19:16:08.539Z,96949.31
2022-11-17T19:18:35.687Z,96951.97
2022-11-17T19:21:14.212Z,96955.44
2022-11-17T19:23:43.482Z,96955.50
2022-11-17T19:26:15.169Z,96953.69
2022-11-17T19:28:42.319Z,96954.59
2022-11-17T19:31:15.378Z,96953.69
2022-11-17T19:33:42.279Z,96960.69
2022-11-17T19:36:11.525Z,96953.69
2022-11-17T19:38:39.280Z,96959.81
2022-11-17T19:41:08.152Z,96952.81
2022-11-17T19:43:38.980Z,96957.16
2022-11-17T19:46:13.842Z,96965.03
2022-11-17T19:48:40.937Z,96960.66
2022-11-17T19:51:15.187Z,96966.75
2022-11-17T19:53:41.871Z,96960.63
2022-11-17T19:56:08.752Z,96975.50
2022-11-17T19:58:35.292Z,96967.66
2022-11-17T20:01:13.191Z,96977.22
2022-11-17T20:03:40.629Z,96969.38
2022-11-17T20:06:11.345Z,96977.28
2022-11-17T20:08:38.153Z,96973.75
2022-11-17T20:11:16.736Z,96976.41
2022-11-17T20:13:43.686Z,96986.91
2022-11-17T20:16:15.669Z,96983.44
2022-11-17T20:18:42.752Z,96981.69
2022-11-17T20:21:10.542Z,96983.44
2022-11-17T20:23:38.584Z,96977.28
2022-11-17T20:26:29.993Z,96983.44
2022-11-17T20:28:57.790Z,96985.19
2022-11-17T20:31:27.029Z,96992.13
2022-11-17T20:34:00.208Z,96997.41
2022-11-17T20:36:29.071Z,96992.97
2022-11-17T20:39:04.063Z,96994.81
2022-11-17T20:41:30.813Z,97000.06
2022-11-17T20:43:59.609Z,96990.41
2022-11-17T20:46:26.887Z,96999.16
2022-11-17T20:48:53.631Z,96997.38
2022-11-17T20:51:22.204Z,97000.09
2022-11-17T20:53:49.501Z,97005.34
2022-11-17T20:56:17.750Z,97006.22
2022-11-17T20:58:44.952Z,97006.16
2022-11-17T21:01:16.628Z,97000.13
2022-11-17T21:03:43.739Z,97005.34
2022-11-17T21:06:10.675Z,97004.44
2022-11-17T21:08:39.108Z,97008.81
2022-11-17T21:11:08.683Z,97011.44
2022-11-17T21:13:36.887Z,97005.34
2022-11-17T21:16:13.441Z,97012.31
2022-11-17T21:18:46.957Z,97013.22
2022-11-17T21:21:14.358Z,97013.16
2022-11-17T21:23:41.553Z,97021.00
2022-11-17T21:26:18.525Z,97019.31
2022-11-17T21:28:45.691Z,97021.94
2022-11-17T21:31:17.760Z,97022.81
2022-11-17T21:33:45.024Z,97032.44
2022-11-17T21:36:17.101Z,97030.69
2022-11-17T21:38:45.219Z,97030.63
2022-11-17T21:41:18.508Z,97035.00
2022-11-17T21:43:47.448Z,97036.69
2022-11-17T21:46:22.742Z,97041.94
2022-11-17T21:48:50.423Z,97048.88
2022-11-17T21:51:22.397Z,97055.09
2022-11-17T21:53:52.482Z,97048.91
2022-11-17T21:56:21.117Z,97056.81
2022-11-17T21:58:47.632Z,97054.16
2022-11-17T22:01:15.989Z,97058.56
2022-11-17T22:03:43.282Z,97054.19
2022-11-17T22:06:15.348Z,97055.94
2022-11-17T22:08:51.556Z,97059.44
2022-11-17T22:11:36.049Z,97058.56
2022-11-17T22:14:21.733Z,97066.41
2022-11-17T22:16:52.972Z,97069.84
2022-11-17T22:19:22.124Z,97073.38
2022-11-17T22:21:51.590Z,97069.88
2022-11-17T22:24:18.231Z,97074.25
2022-11-17T22:26:45.218Z,97061.97
2022-11-17T22:29:18.385Z,97075.13
2022-11-17T22:31:46.281Z,97077.72
2022-11-17T22:34:19.072Z,97077.75
2022-11-17T22:36:46.152Z,97078.66
2022-11-17T22:39:12.716Z,97081.22
2022-11-17T22:41:42.640Z,97081.25
2022-11-17T22:44:15.719Z,97085.63
2022-11-17T22:46:45.781Z,97089.09
2022-11-17T22:49:12.896Z,97093.47
2022-11-17T22:51:58.224Z,97097.84
2022-11-17T22:54:24.700Z,97101.31
2022-11-17T22:56:51.212Z,97093.50
2022-11-17T22:59:17.969Z,97097.91
2022-11-17T23:01:46.609Z,97102.22
2022-11-17T23:04:14.044Z,97095.28
2022-11-17T23:06:40.523Z,97097.94
2022-11-17T23:09:06.998Z,97104.06
2022-11-17T23:11:38.147Z,97099.69
2022-11-17T23:14:12.713Z,97100.56
2022-11-17T23:16:39.996Z,97112.81
2022-11-17T23:19:15.775Z,97112.78
2022-11-17T23:21:42.881Z,97116.28
2022-11-17T23:24:14.413Z,97111.09
2022-11-17T23:26:42.006Z,97107.63
2022-11-17T23:29:09.382Z,97120.72
2022-11-17T23:31:36.154Z,97114.66
2022-11-17T23:34:03.652Z,97117.28
2022-11-17T23:36:30.266Z,97112.91
2022-11-17T23:38:57.755Z,97124.25
2022-11-17T23:41:24.341Z,97115.50
2022-11-17T23:43:55.676Z,97126.84
2022-11-17T23:46:27.015Z,97124.22
2022-11-17T23:48:55.170Z,97120.78
2022-11-17T23:51:23.783Z,97126.88
2022-11-17T23:53:50.649Z,97133.00
2022-11-17T23:56:19.464Z,97136.47
2022-11-17T23:58:50.470Z,97137.38
